Terminal Aerodrome Forecast
Issued by NWS

Home | Current Version | Previous Version | Text Only | Print | Product List | Glossary On
Versions: 1 2 3 4 5 6 7 8 9 10 11 12 13 14 15 16 17 18 19
000
FTUS43 KIWX 211738
TAFSBN
TAF
KSBN 211738Z 2118/2218 09011G17KT P6SM BKN050
      TEMPO 2119/2121 4SM -SHRA BR BKN020
     FM212100 12011G17KT 6SM BR VCTS OVC015CB
      TEMPO 2121/2124 2SM SHRA BR OVC010
     FM220000 13008KT P6SM VCSH OVC045
     FM220500 21006KT P6SM BKN020
     FM220800 25006KT 3SM BR BKN006=

USA.gov is the U.S. government's official web portal to all federal, state and local government web resources and services.